Hauptseite
METAR-TAF:

METAR-TAF

Flughäfen :

Flughafen Lüttich

Lüttich, Belgien

Breite: 50-39N, Länge: 005-27E, Höhe: 186 m

Beobachtung

Neuester Wetterbericht von vor 31 Minuten, um 12:50 UTC
Wind 9 kt aus West/Nordwest, variierte zwischen West und Nord/Nordwest
Temperatur 25°C
Luftfeuchtigkeit 47%
Luftdruck 1016 hPa
Sichtweite 10 km oder mehr
Aufgelockert bewölkt in der Höhe von 4800 ft

METAR: EBLG 171250Z 29009KT 260V330 9999 SCT048 25/13 Q1016 NOSIG

Zeit: 15:21 (13:21 UTC)

Prognose

Neuester Wetterbericht von vor 2 Stunden und 21 Minuten, um 11:00 UTC
Gültige Prognose vom 17 um 12 UTC bis 18 um 18 UTC
Wind 6 kt aus West
Sichtweite 10 km oder mehr
keine Wolken unter 1500 m und keine Kumulonimbus oder Gewitterwolken
Wahrscheinlichkeit 30% :
Zeitweise
vom 17 um 13 UTC bis 17 um 16 UTC
Gewitter, Leichtregen

TAF: EBLG 171100Z 1712/1818 28006KT CAVOK PROB30 TEMPO 1713/1716 -TSRA

Wetterbeobachtungen und Prognosen von mehr als 4000 Flughäfen (METAR und TAF Bericht).

Die verfügbaren Stationen werden durch gelbe und rote Markierungen auf der Karte dargestellt.

Führen Sie die Maus auf sie, um den Namen der Station zu sehen.

Darauf klicken, um die Beobachtung von Wetterbeobachtungen und Prognosen zu sehen.

Um die Karte zu ändern : klicken Sie auf den grünen Tasten mit einem schwarzen Kreuz Zum Vergrößern, auf den grünen Button mit einem Gedankenstrich zu verkleinern, oder auf die grünen Pfeile für benachbarte Karten.


METAR-TAF: